Time;durP1;ratioP1;P1;durP2;ratioP2;P2;SDS_P1;SDS_P2;PMS_P1;PMS_P2;Temp;Humidity;BMP_temperature;BMP_pressure;BME280_temperature;BME280_humidity;BME280_pressure;Samples;Min_cycle;Max_cycle;Signal;HPM_P1;HPM_P2
2022/11/04 00:01:34;;;;;;;5.13;2.60;;;;;;;12.00;79.16;99309.88;5054274;28;20196;-84
2022/11/04 00:04:02;;;;;;;5.17;3.23;;;;;;;12.00;79.12;99309.06;5060121;28;20215;-84
2022/11/04 00:06:28;;;;;;;4.33;3.30;;;;;;;12.00;79.13;99306.41;5059862;28;20233;-84
2022/11/04 00:08:57;;;;;;;4.67;3.60;;;;;;;12.01;79.02;99311.56;5053455;28;20812;-83
2022/11/04 00:14:10;;;;;;;3.97;2.93;;;;;;;12.02;79.00;99315.09;5055828;28;20747;-84
2022/11/04 00:19:23;;;;;;;6.03;3.70;;;;;;;12.03;78.97;99317.63;5054602;28;20255;-84
2022/11/04 00:30:08;;;;;;;4.70;3.03;;;;;;;12.05;79.31;99317.47;5047197;28;20208;-84
2022/11/04 00:35:27;;;;;;;5.67;3.60;;;;;;;12.05;79.43;99318.31;5056712;28;20241;-84
2022/11/04 00:37:53;;;;;;;5.40;3.50;;;;;;;12.06;79.20;99319.16;5057152;28;20255;-84
2022/11/04 00:40:20;;;;;;;5.37;3.90;;;;;;;12.06;79.37;99320.00;5054183;28;20210;-84
2022/11/04 00:42:46;;;;;;;4.70;3.80;;;;;;;12.08;79.26;99322.53;5053352;28;20205;-83
2022/11/04 00:45:13;;;;;;;4.90;3.40;;;;;;;12.08;79.47;99327.88;5056374;28;20251;-84
2022/11/04 00:47:39;;;;;;;7.00;3.60;;;;;;;12.08;79.64;99322.53;5052113;28;20232;-83
2022/11/04 00:50:07;;;;;;;5.23;3.60;;;;;;;12.08;79.88;99319.88;5051006;28;20208;-84
2022/11/04 00:52:35;;;;;;;4.20;3.70;;;;;;;12.09;79.81;99324.22;5051099;28;20208;-83
2022/11/04 00:55:01;;;;;;;5.43;3.37;;;;;;;12.09;79.74;99321.56;5052206;28;20680;-83
2022/11/04 00:57:28;;;;;;;4.43;3.30;;;;;;;12.09;79.83;99317.06;5061762;28;20235;-84
2022/11/04 00:59:54;;;;;;;4.13;3.43;;;;;;;12.11;80.11;99322.28;5053100;28;20212;-84
2022/11/04 01:02:21;;;;;;;3.97;3.23;;;;;;;12.12;79.81;99323.97;5048076;28;20228;-84
2022/11/04 01:04:47;;;;;;;5.97;2.83;;;;;;;12.09;79.87;99319.75;5051806;28;20632;-84
2022/11/04 01:07:14;;;;;;;6.07;3.10;;;;;;;12.12;80.34;99329.31;5053522;28;20225;-83
2022/11/04 01:09:41;;;;;;;4.97;2.83;;;;;;;12.12;80.09;99321.28;5051519;28;20231;-84
2022/11/04 01:12:08;;;;;;;3.63;2.60;;;;;;;12.13;80.26;99325.66;5057559;28;20216;-83
2022/11/04 01:14:34;;;;;;;2.50;2.17;;;;;;;12.16;80.49;99320.88;5054330;28;20212;-83
2022/11/04 01:17:01;;;;;;;4.50;2.67;;;;;;;12.19;80.64;99325.06;5050617;28;20232;-84
2022/11/04 01:19:28;;;;;;;3.77;2.40;;;;;;;12.21;80.90;99319.59;5057481;28;20200;-83
2022/11/04 01:21:54;;;;;;;5.60;3.00;;;;;;;12.27;81.64;99321.72;5052933;28;20228;-84
2022/11/04 01:24:21;;;;;;;5.13;2.80;;;;;;;12.29;81.92;99333.09;5048548;28;20205;-83
2022/11/04 01:26:48;;;;;;;4.83;2.73;;;;;;;12.29;82.12;99339.28;5064295;28;20229;-84
2022/11/04 01:29:15;;;;;;;6.47;3.10;;;;;;;12.32;82.42;99354.19;5053283;28;21775;-83
2022/11/04 01:31:41;;;;;;;3.63;2.73;;;;;;;12.32;82.98;99363.03;5052685;28;20209;-83
2022/11/04 01:34:09;;;;;;;3.60;2.50;;;;;;;12.34;83.67;99366.41;5055633;28;20202;-84
2022/11/04 01:36:35;;;;;;;4.90;2.70;;;;;;;12.34;84.19;99382.44;5055436;28;20222;-83
2022/11/04 01:39:02;;;;;;;4.17;2.13;;;;;;;12.35;84.98;99377.94;5065258;28;20560;-82
2022/11/04 01:41:30;;;;;;;5.10;2.67;;;;;;;12.32;85.41;99386.22;5053294;28;20209;-84
2022/11/04 01:44:00;;;;;;;3.33;3.03;;;;;;;12.27;86.42;99388.44;5052084;28;20715;-83
2022/11/04 01:46:31;;;;;;;4.03;2.90;;;;;;;12.26;86.43;99394.78;5058552;28;20580;-83
2022/11/04 01:49:04;;;;;;;3.30;2.20;;;;;;;12.22;87.13;99396.88;5059303;28;20248;-83
2022/11/04 01:51:34;;;;;;;3.87;2.50;;;;;;;12.23;87.39;99401.22;5054885;28;20210;-83
2022/11/04 01:54:04;;;;;;;4.03;2.30;;;;;;;12.18;87.93;99398.16;5062962;28;20205;-83
2022/11/04 01:56:32;;;;;;;4.00;2.40;;;;;;;12.16;88.19;99400.09;5053322;28;20442;-83
2022/11/04 01:59:05;;;;;;;2.30;1.73;;;;;;;12.12;88.57;99404.03;5057088;28;20602;-84
2022/11/04 02:01:32;;;;;;;2.90;1.70;;;;;;;12.08;88.65;99391.94;5055364;28;20198;-84
2022/11/04 02:04:24;;;;;;;2.40;2.20;;;;;;;12.03;89.02;99380.81;5058102;28;20208;-82
2022/11/04 02:06:48;;;;;;;2.30;1.97;;;;;;;12.00;89.37;99375.78;5046606;28;20299;-82
2022/11/04 02:09:18;;;;;;;2.20;2.00;;;;;;;11.97;89.64;99376.03;5057348;28;20221;-82
2022/11/04 02:14:30;;;;;;;2.83;2.20;;;;;;;11.91;90.42;99384.59;5059319;28;20293;-85
2022/11/04 02:17:04;;;;;;;3.63;2.57;;;;;;;11.89;90.89;99371.38;5058950;28;20226;-85
2022/11/04 02:19:53;;;;;;;4.50;2.50;;;;;;;11.86;90.96;99376.97;5053772;28;20578;-85
2022/11/04 02:22:44;;;;;;;4.63;2.23;;;;;;;11.85;91.24;99371.78;5056339;28;20215;-85
2022/11/04 02:25:27;;;;;;;3.97;2.50;;;;;;;11.81;91.49;99369.41;5051015;28;20220;-83
2022/11/04 02:28:18;;;;;;;3.17;2.00;;;;;;;11.80;92.02;99369.53;5048810;28;20225;-83
2022/11/04 02:30:50;;;;;;;2.30;1.77;;;;;;;11.76;92.30;99366.28;5045356;28;20196;-83
2022/11/04 02:33:22;;;;;;;2.60;1.90;;;;;;;11.74;92.82;99370.88;5051824;28;20206;-83
2022/11/04 02:36:00;;;;;;;2.13;1.73;;;;;;;11.73;92.94;99373.69;5057703;28;20215;-83
2022/11/04 02:38:36;;;;;;;2.10;1.90;;;;;;;11.71;92.95;99371.16;5049935;28;20740;-83
2022/11/04 02:41:10;;;;;;;2.43;1.60;;;;;;;11.72;93.30;99369.34;5055477;28;20198;-84
2022/11/04 02:43:48;;;;;;;2.60;1.50;;;;;;;11.70;93.70;99360.63;5053935;28;20206;-83
2022/11/04 02:46:21;;;;;;;1.50;1.20;;;;;;;11.71;93.78;99351.63;5054990;28;20199;-84
2022/11/04 02:48:52;;;;;;;1.47;1.30;;;;;;;11.68;93.97;99360.75;5048930;28;20292;-84
2022/11/04 02:51:24;;;;;;;2.10;1.57;;;;;;;11.66;94.12;99360.03;5052109;28;20224;-84
2022/11/04 02:54:02;;;;;;;1.80;1.43;;;;;;;11.68;94.25;99366.09;5051376;28;20208;-84
2022/11/04 02:56:31;;;;;;;1.70;1.33;;;;;;;11.67;94.42;99356.41;5048732;28;20581;-84
2022/11/04 02:59:02;;;;;;;1.97;1.77;;;;;;;11.67;94.45;99368.88;5051798;28;20284;-84
2022/11/04 03:01:34;;;;;;;1.87;1.13;;;;;;;11.66;94.32;99365.38;5054044;28;20208;-84
2022/11/04 03:04:05;;;;;;;2.63;1.37;;;;;;;11.67;94.17;99369.72;5056134;28;20212;-84
2022/11/04 03:06:35;;;;;;;2.17;1.33;;;;;;;11.66;94.09;99389.38;5053818;28;20228;-83
2022/11/04 03:09:03;;;;;;;1.57;1.40;;;;;;;11.63;94.03;99384.34;5054612;28;20692;-84
2022/11/04 03:11:31;;;;;;;1.30;1.20;;;;;;;11.63;93.53;99387.00;5055188;28;20881;-83
2022/11/04 03:14:02;;;;;;;1.43;0.90;;;;;;;11.65;93.25;99401.03;5057003;28;20268;-84
2022/11/04 03:16:36;;;;;;;1.47;0.90;;;;;;;11.61;92.63;99415.63;5056177;28;20208;-83
2022/11/04 03:19:12;;;;;;;1.13;1.00;;;;;;;11.61;92.44;99422.78;5058071;28;20214;-84
2022/11/04 03:21:46;;;;;;;1.67;1.20;;;;;;;11.55;91.81;99429.47;5055542;28;20205;-84
2022/11/04 03:24:13;;;;;;;3.30;1.70;;;;;;;11.55;91.58;99441.97;5054694;28;20201;-83
2022/11/04 03:26:46;;;;;;;2.80;1.60;;;;;;;11.53;90.43;99460.75;5053169;28;20237;-84
2022/11/04 03:29:22;;;;;;;3.33;1.67;;;;;;;11.52;90.34;99471.56;5051109;28;20289;-83
2022/11/04 03:31:59;;;;;;;3.50;1.90;;;;;;;11.49;89.91;99467.31;5051620;28;20205;-83
2022/11/04 03:34:26;;;;;;;2.50;1.30;;;;;;;11.48;89.52;99471.81;5050953;28;20198;-84
2022/11/04 03:36:53;;;;;;;1.53;1.17;;;;;;;11.49;89.36;99467.31;5051101;28;20242;-84
2022/11/04 03:39:22;;;;;;;1.20;1.10;;;;;;;11.46;88.74;99479.09;5053565;28;20213;-83
2022/11/04 03:41:52;;;;;;;2.67;1.10;;;;;;;11.41;88.04;99488.47;5055826;28;20209;-84
2022/11/04 03:44:19;;;;;;;1.33;1.10;;;;;;;11.38;87.87;99489.59;5051226;28;20213;-84
2022/11/04 03:46:46;;;;;;;1.10;0.90;;;;;;;11.35;87.64;99487.16;5049843;28;20236;-84
2022/11/04 03:49:15;;;;;;;1.30;0.90;;;;;;;11.33;87.13;99488.28;5057118;28;20226;-83
2022/11/04 03:51:41;;;;;;;1.73;1.10;;;;;;;11.28;86.81;99493.16;5051201;28;20221;-84
2022/11/04 03:54:08;;;;;;;1.57;0.90;;;;;;;11.26;86.55;99493.31;5049696;28;20220;-84
2022/11/04 03:57:00;;;;;;;1.43;1.23;;;;;;;11.25;86.11;99493.44;5047514;28;20229;-84
2022/11/04 03:59:45;;;;;;;2.90;1.30;;;;;;;11.19;85.09;99489.44;5050060;28;20206;-85
2022/11/04 04:02:17;;;;;;;2.33;1.47;;;;;;;11.10;84.96;99495.56;5050054;28;20673;-85
2022/11/04 04:04:54;;;;;;;2.00;1.70;;;;;;;11.07;84.70;99490.50;5053388;28;20214;-84
2022/11/04 04:07:29;;;;;;;2.77;2.33;;;;;;;11.04;84.53;99507.56;5047255;28;20232;-84
2022/11/04 04:10:01;;;;;;;3.47;2.30;;;;;;;11.02;84.24;99498.00;5057504;28;20221;-85
2022/11/04 04:12:36;;;;;;;3.77;2.83;;;;;;;10.98;84.16;99509.88;5056433;28;20201;-84
2022/11/04 04:15:07;;;;;;;3.30;2.93;;;;;;;10.97;84.14;99517.03;5049500;28;20193;-84
2022/11/04 04:17:38;;;;;;;2.93;2.70;;;;;;;10.98;84.14;99529.38;5057914;28;20236;-85
2022/11/04 04:20:10;;;;;;;3.77;2.30;;;;;;;10.98;83.88;99523.22;5050679;28;20198;-85
2022/11/04 04:22:41;;;;;;;2.63;2.10;;;;;;;10.97;84.05;99522.38;5052071;28;20202;-84
2022/11/04 04:27:57;;;;;;;2.20;1.47;;;;;;;10.93;83.96;99522.72;5055000;28;20230;-84
2022/11/04 04:30:24;;;;;;;1.53;1.43;;;;;;;10.91;83.69;99530.88;5047112;28;20240;-84
2022/11/04 04:32:56;;;;;;;1.63;1.50;;;;;;;10.90;83.52;99529.19;5051647;28;20213;-85
2022/11/04 04:35:42;;;;;;;2.17;1.80;;;;;;;10.89;83.82;99540.81;5048510;28;20210;-84
2022/11/04 04:46:32;;;;;;;1.90;1.80;;;;;;;10.86;83.66;99548.22;5053058;28;20220;-84
2022/11/04 04:49:04;;;;;;;1.90;1.63;;;;;;;10.84;83.93;99548.31;5049903;28;20229;-85
2022/11/04 04:51:42;;;;;;;1.80;1.70;;;;;;;10.78;83.84;99555.00;5054513;28;20243;-86
2022/11/04 04:54:09;;;;;;;2.20;2.00;;;;;;;10.75;84.00;99554.38;5053698;28;20197;-85
2022/11/04 04:56:35;;;;;;;1.90;1.80;;;;;;;10.76;83.39;99550.75;5049319;28;20227;-85
2022/11/04 04:59:02;;;;;;;3.50;1.70;;;;;;;10.76;83.63;99559.59;5057254;28;20229;-86
2022/11/04 05:01:28;;;;;;;2.40;2.20;;;;;;;10.73;83.50;99556.34;5060854;28;20212;-86
2022/11/04 05:03:55;;;;;;;1.93;1.83;;;;;;;10.73;83.50;99565.19;5056873;28;20205;-86
2022/11/04 05:06:21;;;;;;;2.37;1.90;;;;;;;10.70;83.34;99561.94;5049470;28;20205;-86
2022/11/04 05:08:49;;;;;;;2.47;2.07;;;;;;;10.72;83.51;99560.00;5052954;28;20231;-84
2022/11/04 05:11:16;;;;;;;2.13;1.93;;;;;;;10.68;83.30;99559.38;5056428;28;20211;-84
2022/11/04 05:13:42;;;;;;;2.07;1.90;;;;;;;10.69;83.13;99562.91;5056452;28;20210;-84
2022/11/04 05:16:10;;;;;;;1.70;1.60;;;;;;;10.67;83.02;99564.84;5056383;28;20573;-84
2022/11/04 05:18:37;;;;;;;2.00;1.80;;;;;;;10.67;82.60;99578.16;5055095;28;20708;-85
2022/11/04 05:21:05;;;;;;;2.07;1.87;;;;;;;10.66;82.74;99584.44;5053660;28;21929;-84
2022/11/04 05:23:31;;;;;;;4.13;2.30;;;;;;;10.62;82.69;99585.66;5051607;28;20217;-85
2022/11/04 05:25:59;;;;;;;2.00;1.80;;;;;;;10.61;82.79;99587.47;5053148;28;20222;-85
2022/11/04 05:28:26;;;;;;;2.23;2.03;;;;;;;10.59;83.01;99601.88;5049116;28;20598;-84
2022/11/04 05:30:52;;;;;;;2.40;2.20;;;;;;;10.57;82.82;99615.31;5052737;28;20233;-86
2022/11/04 05:33:19;;;;;;;2.50;2.17;;;;;;;10.53;82.91;99619.19;5057721;28;20206;-87
2022/11/04 05:35:45;;;;;;;2.60;2.40;;;;;;;10.49;82.81;99608.91;5062051;28;20202;-86
2022/11/04 05:38:12;;;;;;;2.97;2.30;;;;;;;10.50;82.43;99597.28;5055471;28;20316;-86
2022/11/04 05:40:39;;;;;;;2.80;2.40;;;;;;;10.50;82.30;99591.97;5062816;28;20578;-85
2022/11/04 05:43:07;;;;;;;2.80;2.60;;;;;;;10.50;82.42;99615.94;5057741;28;20202;-83
2022/11/04 05:45:36;;;;;;;2.50;2.30;;;;;;;10.47;82.64;99624.16;5056684;28;20232;-85
2022/11/04 05:48:05;;;;;;;2.40;2.20;;;;;;;10.49;82.07;99633.72;5050924;28;20232;-84
2022/11/04 05:50:33;;;;;;;2.50;2.30;;;;;;;10.51;82.28;99641.59;5055795;28;20229;-84
2022/11/04 05:53:00;;;;;;;2.60;2.40;;;;;;;10.51;82.17;99641.59;5053414;28;20653;-84
2022/11/04 05:55:28;;;;;;;2.83;2.60;;;;;;;10.53;82.25;99647.63;5056910;28;20220;-84
2022/11/04 05:57:56;;;;;;;2.47;2.23;;;;;;;10.53;82.39;99648.47;5054578;28;20226;-84
2022/11/04 06:00:24;;;;;;;3.67;2.50;;;;;;;10.54;82.02;99638.69;5055817;28;20694;-86
2022/11/04 06:02:51;;;;;;;2.77;2.57;;;;;;;10.53;82.26;99653.81;5062692;28;20220;-84
2022/11/04 06:05:17;;;;;;;4.33;2.50;;;;;;;10.55;82.40;99664.34;5060285;28;20209;-84
2022/11/04 06:07:44;;;;;;;3.07;2.60;;;;;;;10.55;82.25;99677.66;5059901;28;20217;-86
2022/11/04 06:10:10;;;;;;;3.00;2.70;;;;;;;10.54;82.38;99678.63;5050032;28;20224;-84
2022/11/04 06:12:37;;;;;;;2.70;2.50;;;;;;;10.55;82.18;99675.00;5053686;28;20218;-83
2022/11/04 06:15:05;;;;;;;3.30;2.43;;;;;;;10.57;81.80;99683.72;5055491;28;20205;-84
2022/11/04 06:17:33;;;;;;;2.80;2.50;;;;;;;10.57;82.07;99683.72;5053377;28;20246;-86
2022/11/04 06:19:59;;;;;;;2.63;2.43;;;;;;;10.57;81.72;99678.38;5055953;28;20206;-84
2022/11/04 06:22:25;;;;;;;3.27;2.53;;;;;;;10.59;81.83;99692.38;5055013;28;20213;-83
2022/11/04 06:24:52;;;;;;;2.53;2.33;;;;;;;10.56;81.71;99690.84;5054934;28;20212;-84
2022/11/04 06:27:18;;;;;;;2.80;2.53;;;;;;;10.55;82.02;99701.63;5055923;28;20237;-84
2022/11/04 06:29:46;;;;;;;3.50;2.50;;;;;;;10.56;81.80;99700.66;5059017;28;20241;-81
2022/11/04 06:32:15;;;;;;;3.40;2.63;;;;;;;10.56;81.67;99703.31;5053854;28;20634;-82
2022/11/04 06:34:43;;;;;;;3.10;2.40;;;;;;;10.55;81.24;99709.59;5065624;28;20202;-81
2022/11/04 06:37:09;;;;;;;3.97;2.57;;;;;;;10.54;81.30;99719.41;5063079;28;20230;-81
2022/11/04 06:39:36;;;;;;;4.00;2.43;;;;;;;10.55;81.23;99733.56;5055919;28;20272;-81
2022/11/04 06:42:03;;;;;;;2.50;2.30;;;;;;;10.54;81.25;99738.03;5063830;28;20208;-82
2022/11/04 06:44:30;;;;;;;2.57;2.10;;;;;;;10.54;80.84;99714.06;5054123;28;20210;-82
2022/11/04 06:46:56;;;;;;;2.80;2.00;;;;;;;10.54;80.70;99703.44;5059822;28;20229;-83
2022/11/04 06:49:23;;;;;;;2.60;2.17;;;;;;;10.53;80.64;99715.03;5055703;28;20596;-83
2022/11/04 06:51:51;;;;;;;2.47;1.93;;;;;;;10.54;80.13;99727.38;5055632;28;20221;-83
2022/11/04 06:54:18;;;;;;;3.83;2.10;;;;;;;10.55;80.02;99730.91;5060254;28;20199;-83
2022/11/04 06:56:46;;;;;;;2.10;1.90;;;;;;;10.54;80.03;99737.19;5057715;28;20236;-82
2022/11/04 06:59:15;;;;;;;2.07;1.87;;;;;;;10.53;79.67;99739.00;5058682;28;20251;-81
2022/11/04 07:01:42;;;;;;;3.63;2.17;;;;;;;10.55;79.58;99737.06;5060047;28;20202;-83
2022/11/04 07:04:09;;;;;;;3.50;2.53;;;;;;;10.57;79.46;99731.63;5058458;28;20201;-81
2022/11/04 07:06:36;;;;;;;2.53;2.00;;;;;;;10.56;79.01;99729.94;5061164;28;20245;-82
2022/11/04 07:09:04;;;;;;;2.40;2.20;;;;;;;10.55;79.39;99736.22;5060380;28;20205;-81
2022/11/04 07:11:32;;;;;;;5.07;2.60;;;;;;;10.57;79.01;99736.97;5054072;28;20202;-82
2022/11/04 07:13:59;;;;;;;3.97;2.27;;;;;;;10.56;79.08;99740.59;5057737;28;20243;-82
2022/11/04 07:16:25;;;;;;;3.53;2.10;;;;;;;10.56;78.84;99736.09;5062342;28;20789;-81
2022/11/04 07:18:53;;;;;;;4.80;2.70;;;;;;;10.55;78.76;99726.41;5059165;28;20228;-81
2022/11/04 07:21:20;;;;;;;3.67;2.27;;;;;;;10.55;78.62;99729.09;5061686;28;20201;-81
2022/11/04 07:23:46;;;;;;;3.73;2.87;;;;;;;10.56;78.81;99740.59;5059843;28;20216;-81
2022/11/04 07:26:14;;;;;;;3.90;2.63;;;;;;;10.57;78.78;99718.31;5053328;28;20205;-81
2022/11/04 07:28:41;;;;;;;3.03;2.70;;;;;;;10.57;78.78;99728.97;5057108;28;20668;-81
2022/11/04 07:31:11;;;;;;;3.27;2.90;;;;;;;10.58;78.34;99741.28;5058201;28;20226;-81
2022/11/04 07:33:37;;;;;;;4.93;3.10;;;;;;;10.58;78.26;99749.28;5057652;28;20209;-81
2022/11/04 07:36:05;;;;;;;6.50;2.87;;;;;;;10.58;78.08;99749.28;5052213;28;20654;-82
2022/11/04 07:38:32;;;;;;;3.80;2.60;;;;;;;10.59;78.48;99757.13;5063667;28;20230;-83
2022/11/04 07:40:59;;;;;;;5.60;3.10;;;;;;;10.59;78.00;99758.97;5057777;28;20202;-82
2022/11/04 07:43:26;;;;;;;4.63;3.07;;;;;;;10.60;78.35;99758.00;5053077;28;20229;-82
2022/11/04 07:45:59;;;;;;;4.93;2.80;;;;;;;10.62;78.18;99761.38;5056360;28;20212;-83
2022/11/04 07:48:26;;;;;;;3.60;2.80;;;;;;;10.63;77.96;99761.28;5055778;28;20231;-81
2022/11/04 07:50:55;;;;;;;3.43;3.00;;;;;;;10.64;78.20;99762.13;5054767;28;20237;-81
2022/11/04 07:53:21;;;;;;;4.13;2.40;;;;;;;10.63;78.25;99761.28;5058811;28;20674;-82
2022/11/04 07:55:49;;;;;;;3.90;2.20;;;;;;;10.64;78.52;99765.63;5054409;28;20211;-82
2022/11/04 07:58:16;;;;;;;3.37;2.43;;;;;;;10.64;78.40;99773.63;5050173;28;20235;-82
2022/11/04 08:00:44;;;;;;;4.73;2.80;;;;;;;10.67;78.29;99764.53;5063895;28;20286;-83
2022/11/04 08:03:10;;;;;;;3.70;2.60;;;;;;;10.66;78.24;99771.69;5056100;28;20201;-81
2022/11/04 08:05:37;;;;;;;4.93;2.10;;;;;;;10.68;78.24;99766.25;5062610;28;20212;-81
2022/11/04 08:08:04;;;;;;;5.43;3.10;;;;;;;10.70;78.07;99769.63;5053450;28;20229;-81
2022/11/04 08:10:31;;;;;;;4.53;2.70;;;;;;;10.70;78.16;99777.63;5055955;28;20229;-81
2022/11/04 08:12:57;;;;;;;4.00;1.87;;;;;;;10.70;77.79;99765.16;5055111;28;20648;-81
2022/11/04 08:15:24;;;;;;;2.97;2.50;;;;;;;10.71;77.89;99776.66;5051455;28;20656;-81
2022/11/04 08:17:52;;;;;;;6.67;2.07;;;;;;;10.71;77.81;99782.84;5053604;28;20602;-81
2022/11/04 08:20:18;;;;;;;3.47;1.80;;;;;;;10.74;77.79;99782.59;5058909;28;20211;-81
2022/11/04 08:22:44;;;;;;;5.13;1.97;;;;;;;10.76;77.60;99783.31;5052985;28;20268;-81
2022/11/04 08:25:12;;;;;;;5.10;2.07;;;;;;;10.78;77.92;99777.88;5055778;28;20209;-82
2022/11/04 08:27:39;;;;;;;7.23;2.67;;;;;;;10.80;77.92;99781.25;5048493;28;20581;-82
2022/11/04 08:30:06;;;;;;;6.53;2.20;;;;;;;10.83;77.81;99783.69;5052533;28;20716;-82
2022/11/04 08:32:33;;;;;;;5.23;2.40;;;;;;;10.85;77.68;99786.25;5051820;28;20201;-82
2022/11/04 08:35:01;;;;;;;4.23;2.53;;;;;;;10.84;77.63;99777.41;5058262;28;20775;-82
2022/11/04 08:37:27;;;;;;;4.57;2.50;;;;;;;10.85;77.77;99778.25;5051706;28;20241;-84
2022/11/04 08:39:54;;;;;;;5.20;2.07;;;;;;;10.87;77.41;99785.16;5056870;28;20230;-82
2022/11/04 08:42:20;;;;;;;7.53;2.50;;;;;;;10.87;77.09;99778.97;5059948;28;20792;-81
2022/11/04 08:44:50;;;;;;;4.30;2.60;;;;;;;10.88;77.15;99781.53;5055352;28;20206;-82
2022/11/04 08:47:17;;;;;;;5.70;2.70;;;;;;;10.88;77.06;99786.00;5059806;28;20629;-83
2022/11/04 08:49:43;;;;;;;7.80;3.60;;;;;;;10.92;76.93;99795.47;5053424;28;20664;-83
2022/11/04 08:52:11;;;;;;;4.07;2.53;;;;;;;10.95;77.03;99806.69;5059106;28;20255;-82
2022/11/04 08:54:37;;;;;;;5.03;2.83;;;;;;;10.98;76.64;99813.59;5059492;28;20209;-81
2022/11/04 08:57:04;;;;;;;5.30;2.77;;;;;;;11.03;76.53;99824.75;5052624;28;20267;-81
2022/11/04 08:59:31;;;;;;;5.30;2.40;;;;;;;11.06;76.77;99824.53;5061979;28;20221;-81
2022/11/04 09:01:57;;;;;;;5.60;2.63;;;;;;;11.10;76.70;99831.31;5061572;28;20208;-81
2022/11/04 09:04:24;;;;;;;4.83;2.60;;;;;;;11.15;76.24;99826.44;5061667;28;20201;-82
2022/11/04 09:06:51;;;;;;;5.13;3.07;;;;;;;11.17;76.10;99832.50;5057468;28;20232;-82
2022/11/04 09:09:19;;;;;;;3.67;2.43;;;;;;;11.16;76.06;99832.63;5057472;28;20200;-82
2022/11/04 09:11:47;;;;;;;4.53;2.50;;;;;;;11.18;76.05;99828.03;5057879;28;20227;-81
2022/11/04 09:14:14;;;;;;;2.73;2.50;;;;;;;11.17;75.99;99827.19;5054227;28;20207;-82
2022/11/04 09:16:41;;;;;;;5.13;2.93;;;;;;;11.18;75.50;99830.69;5064506;28;20219;-81
2022/11/04 09:19:08;;;;;;;5.77;2.50;;;;;;;11.19;75.34;99829.72;5054127;28;20227;-81
2022/11/04 09:21:34;;;;;;;4.73;2.97;;;;;;;11.18;75.34;99828.03;5055253;28;20645;-82
2022/11/04 09:24:01;;;;;;;6.97;3.10;;;;;;;11.20;75.20;99826.09;5063859;28;20213;-81
2022/11/04 09:26:31;;;;;;;6.37;3.20;;;;;;;11.22;75.15;99821.50;5053893;28;20302;-81
2022/11/04 09:28:59;;;;;;;4.67;3.07;;;;;;;11.25;75.12;99808.78;5055993;28;20213;-81
2022/11/04 09:31:27;;;;;;;5.07;3.27;;;;;;;11.28;75.28;99808.53;5053459;28;20231;-81
2022/11/04 09:33:54;;;;;;;5.33;3.80;;;;;;;11.30;75.05;99805.72;5056296;28;20680;-83
2022/11/04 09:36:20;;;;;;;7.50;4.13;;;;;;;11.34;75.23;99807.19;5057621;28;20768;-82
2022/11/04 09:38:47;;;;;;;5.47;4.50;;;;;;;11.37;75.04;99805.13;5058275;28;20207;-81
2022/11/04 09:41:41;;;;;;;6.90;4.17;;;;;;;11.41;75.20;99809.25;5055022;28;20202;-81
2022/11/04 09:44:21;;;;;;;6.80;4.13;;;;;;;11.43;75.19;99799.31;5053941;28;20203;-81
2022/11/04 09:46:50;;;;;;;6.30;4.40;;;;;;;11.45;75.23;99802.72;5059507;28;20692;-81
2022/11/04 09:49:17;;;;;;;5.93;3.83;;;;;;;11.47;75.18;99797.22;5054651;28;20839;-81
2022/11/04 09:51:47;;;;;;;5.63;3.60;;;;;;;11.48;75.33;99778.44;5059551;28;20270;-82
2022/11/04 09:54:21;;;;;;;5.63;3.70;;;;;;;11.50;75.38;99775.66;5055110;28;20228;-81
2022/11/04 09:56:51;;;;;;;4.37;3.23;;;;;;;11.53;75.23;99780.75;5057123;28;20237;-81
2022/11/04 09:59:23;;;;;;;4.87;3.10;;;;;;;11.53;75.00;99786.06;5060810;28;20670;-81
2022/11/04 10:01:58;;;;;;;4.90;3.53;;;;;;;11.58;74.86;99791.03;5065662;28;20223;-81
2022/11/04 10:04:33;;;;;;;5.17;3.77;;;;;;;11.60;74.71;99786.44;5068936;28;20214;-82
2022/11/04 10:07:14;;;;;;;7.07;3.77;;;;;;;11.65;74.79;99793.06;5065678;28;20641;-81
2022/11/04 10:09:50;;;;;;;7.00;3.43;;;;;;;11.69;74.76;99799.00;5058174;28;20211;-81
2022/11/04 10:12:46;;;;;;;10.23;4.47;;;;;;;11.71;74.50;99802.41;5062651;28;20651;-81
2022/11/04 10:15:28;;;;;;;7.37;4.07;;;;;;;11.76;74.57;99808.25;5053557;28;20648;-81
2022/11/04 10:18:05;;;;;;;5.60;3.43;;;;;;;11.81;74.25;99814.06;5057164;28;20234;-81
2022/11/04 10:20:43;;;;;;;4.60;3.30;;;;;;;11.82;73.53;99808.56;5056671;28;20584;-81
2022/11/04 10:23:20;;;;;;;9.03;2.93;;;;;;;11.85;73.25;99819.97;5057379;28;20211;-82
2022/11/04 10:25:49;;;;;;;7.80;3.40;;;;;;;11.89;73.21;99834.78;5053483;28;20682;-81
2022/11/04 10:28:19;;;;;;;8.23;3.80;;;;;;;11.93;73.05;99852.22;5063891;28;20224;-81
2022/11/04 10:30:48;;;;;;;4.77;3.77;;;;;;;11.98;72.97;99858.03;5061731;28;20224;-82
2022/11/04 10:33:23;;;;;;;7.20;4.10;;;;;;;11.97;72.56;99859.88;5062986;28;20201;-82
2022/11/04 10:35:56;;;;;;;6.07;4.27;;;;;;;12.00;72.15;99864.13;5064951;28;20680;-83
2022/11/04 10:38:32;;;;;;;4.97;3.97;;;;;;;12.01;72.41;99868.44;5059805;28;20293;-81
2022/11/04 10:40:58;;;;;;;6.00;3.93;;;;;;;12.02;72.16;99867.47;5059956;28;20275;-81
2022/11/04 10:43:31;;;;;;;7.33;5.23;;;;;;;12.03;72.38;99866.50;5051798;28;20206;-81
2022/11/04 10:46:20;;;;;;;8.83;4.90;;;;;;;12.04;72.17;99870.88;5050547;28;20577;-81
2022/11/04 10:48:51;;;;;;;9.10;4.27;;;;;;;12.05;72.10;99873.41;5054872;28;20198;-81
2022/11/04 10:51:20;;;;;;;4.40;4.00;;;;;;;12.08;72.34;99877.66;5051661;28;20228;-82
2022/11/04 10:53:48;;;;;;;8.47;4.17;;;;;;;12.11;72.07;99872.94;5053921;28;20204;-81
2022/11/04 10:56:21;;;;;;;6.03;4.43;;;;;;;12.11;71.79;99866.75;5056125;28;20205;-81
2022/11/04 10:58:49;;;;;;;7.17;3.83;;;;;;;12.08;70.98;99869.66;5062831;28;20242;-81
2022/11/04 11:01:25;;;;;;;6.00;3.50;;;;;;;12.06;70.64;99861.78;5065072;28;20243;-81
2022/11/04 11:03:51;;;;;;;6.23;4.17;;;;;;;12.08;70.63;99858.97;5058671;28;20207;-81
2022/11/04 11:06:26;;;;;;;6.77;4.50;;;;;;;12.12;70.57;99850.59;5067801;28;20208;-81
2022/11/04 11:08:55;;;;;;;7.10;3.13;;;;;;;12.18;70.39;99845.75;5063710;28;20193;-81
2022/11/04 11:11:37;;;;;;;5.43;3.77;;;;;;;12.22;70.17;99844.47;5057968;28;20239;-81
2022/11/04 11:14:14;;;;;;;6.27;3.57;;;;;;;12.24;70.03;99843.38;5055255;28;20586;-81
2022/11/04 11:16:41;;;;;;;5.73;2.93;;;;;;;12.27;69.52;99829.78;5053240;28;20623;-81
2022/11/04 11:19:14;;;;;;;3.80;2.90;;;;;;;12.31;69.66;99841.06;5055112;28;20217;-81
2022/11/04 11:21:44;;;;;;;6.27;3.20;;;;;;;12.33;69.37;99844.47;5057527;28;20203;-82
2022/11/04 11:24:18;;;;;;;4.93;3.10;;;;;;;12.34;69.25;99851.50;5054660;28;20242;-81
2022/11/04 11:26:47;;;;;;;7.30;3.47;;;;;;;12.36;68.65;99849.56;5053505;28;20236;-81
2022/11/04 11:29:20;;;;;;;5.87;2.63;;;;;;;12.39;68.77;99849.28;5055137;28;20254;-81
2022/11/04 11:31:47;;;;;;;4.30;2.80;;;;;;;12.39;68.41;99847.44;5064857;28;20290;-81
2022/11/04 11:34:17;;;;;;;4.83;2.60;;;;;;;12.41;68.24;99850.00;5055902;28;20217;-81
2022/11/04 11:36:46;;;;;;;3.97;2.83;;;;;;;12.42;68.24;99844.53;5060789;28;20225;-81
2022/11/04 11:39:20;;;;;;;5.73;2.90;;;;;;;12.46;68.02;99853.97;5051315;28;20639;-82
2022/11/04 11:41:54;;;;;;;5.53;3.00;;;;;;;12.48;67.71;99853.84;5050979;28;20205;-81
2022/11/04 11:44:30;;;;;;;4.80;2.90;;;;;;;12.51;67.74;99851.78;5047775;28;20216;-81
2022/11/04 11:47:00;;;;;;;3.27;2.50;;;;;;;12.55;68.07;99856.84;5051241;28;20214;-81
2022/11/04 11:49:29;;;;;;;4.00;2.67;;;;;;;12.57;67.57;99847.72;5058641;28;20678;-81
2022/11/04 11:51:56;;;;;;;5.93;3.10;;;;;;;12.59;67.36;99844.94;5048587;28;20233;-81
2022/11/04 11:54:32;;;;;;;4.43;3.07;;;;;;;12.61;67.32;99848.31;5056442;28;20205;-82
2022/11/04 11:57:02;;;;;;;5.97;3.57;;;;;;;12.65;66.96;99847.09;5047461;28;20239;-81
2022/11/04 11:59:37;;;;;;;5.40;3.40;;;;;;;12.66;66.94;99846.97;5054248;28;20620;-81
2022/11/04 12:02:20;;;;;;;7.47;3.00;;;;;;;12.68;67.01;99846.84;5055011;28;20649;-81
2022/11/04 12:04:47;;;;;;;4.13;2.80;;;;;;;12.69;66.84;99843.19;5056841;28;20228;-81
2022/11/04 12:07:26;;;;;;;7.30;3.40;;;;;;;12.71;66.61;99841.25;5059310;28;20702;-82
2022/11/04 12:10:02;;;;;;;4.13;2.70;;;;;;;12.73;66.82;99841.94;5057857;28;20200;-81
2022/11/04 12:12:44;;;;;;;7.37;3.43;;;;;;;12.77;66.62;99843.38;5058265;28;20625;-81
2022/11/04 12:15:40;;;;;;;5.30;2.83;;;;;;;12.80;67.09;99843.13;5055542;28;20201;-81
2022/11/04 12:18:27;;;;;;;5.33;2.80;;;;;;;12.83;66.83;99854.41;5060191;28;20225;-81